createdAt,value
2018-09-08T00:00:22.439Z,77.63
2018-09-08T00:01:22.410Z,77.22
2018-09-08T00:02:22.395Z,75.89
2018-09-08T00:03:22.391Z,76.40
2018-09-08T00:04:22.385Z,75.38
2018-09-08T00:05:22.385Z,74.43
2018-09-08T00:06:22.359Z,76.26
2018-09-08T00:07:22.342Z,75.75
2018-09-08T00:08:22.334Z,75.14
2018-09-08T00:09:22.322Z,75.24
2018-09-08T00:10:22.326Z,74.22
2018-09-08T00:11:22.308Z,75.24
2018-09-08T00:12:22.293Z,73.88
2018-09-08T00:13:22.282Z,73.68
2018-09-08T00:14:22.276Z,73.44
2018-09-08T00:15:22.273Z,73.44
2018-09-08T00:16:22.247Z,73.84
2018-09-08T00:17:22.238Z,73.33
2018-09-08T00:18:22.234Z,73.44
2018-09-08T00:19:22.215Z,73.54
2018-09-08T00:20:22.224Z,73.23
2018-09-08T00:21:22.198Z,73.74
2018-09-08T00:22:22.180Z,72.52
2018-09-08T00:23:22.236Z,72.72
2018-09-08T00:24:22.164Z,73.60
2018-09-08T00:25:22.170Z,72.92
2018-09-08T00:26:22.146Z,73.33
2018-09-08T00:27:22.125Z,72.52
2018-09-08T00:28:22.117Z,73.44
2018-09-08T00:29:22.106Z,73.44
2018-09-08T00:30:22.111Z,73.23
2018-09-08T00:31:22.090Z,72.92
2018-09-08T00:32:22.076Z,73.03
2018-09-08T00:33:22.063Z,73.84
2018-09-08T00:34:22.050Z,73.54
2018-09-08T00:35:22.074Z,73.84
2018-09-08T00:36:22.040Z,72.92
2018-09-08T00:37:22.023Z,72.92
2018-09-08T00:38:22.048Z,73.23
2018-09-08T00:39:21.996Z,73.64
2018-09-08T00:40:22.008Z,73.84
2018-09-08T00:41:21.978Z,73.03
2018-09-08T00:42:21.964Z,73.64
2018-09-08T00:43:21.960Z,73.23
2018-09-08T00:44:21.946Z,72.92
2018-09-08T00:45:21.954Z,73.84
2018-09-08T00:46:21.938Z,73.47
2018-09-08T00:47:21.910Z,73.88
2018-09-08T00:48:21.902Z,73.77
2018-09-08T00:49:21.894Z,73.33
2018-09-08T00:50:21.901Z,73.03
2018-09-08T00:51:21.866Z,73.84
2018-09-08T00:52:21.857Z,73.74
2018-09-08T00:53:21.850Z,73.88
2018-09-08T00:54:21.834Z,73.27
2018-09-08T00:55:21.852Z,73.44
2018-09-08T00:56:21.817Z,73.33
2018-09-08T00:57:21.807Z,72.92
2018-09-08T00:58:21.798Z,73.64
2018-09-08T00:59:21.781Z,73.23
2018-09-08T01:00:21.788Z,73.33
2018-09-08T01:01:21.760Z,73.03
2018-09-08T01:02:21.747Z,73.33
2018-09-08T01:03:21.744Z,74.56
2018-09-08T01:04:21.732Z,74.39
2018-09-08T01:05:21.720Z,73.98
2018-09-08T01:06:21.722Z,73.68
2018-09-08T01:07:21.702Z,74.08
2018-09-08T01:08:21.687Z,74.49
2018-09-08T01:09:21.678Z,74.49
2018-09-08T01:10:21.668Z,74.11
2018-09-08T01:11:21.669Z,73.98
2018-09-08T01:12:21.642Z,74.52
2018-09-08T01:13:21.631Z,74.43
2018-09-08T01:14:21.622Z,74.80
2018-09-08T01:15:21.614Z,75.14
2018-09-08T01:16:21.619Z,74.59
2018-09-08T01:17:21.590Z,74.73
2018-09-08T01:18:21.583Z,74.93
2018-09-08T01:19:21.564Z,74.93
2018-09-08T01:20:21.565Z,75.24
2018-09-08T01:21:21.565Z,74.93
2018-09-08T01:22:21.543Z,74.63
2018-09-08T01:23:21.547Z,74.32
2018-09-08T01:24:21.511Z,75.24
2018-09-08T01:25:21.501Z,75.45
2018-09-08T01:26:21.505Z,76.37
2018-09-08T01:27:21.494Z,75.24
2018-09-08T01:28:21.473Z,76.26
2018-09-08T01:29:21.461Z,76.26
2018-09-08T01:30:21.453Z,75.34
2018-09-08T01:31:21.456Z,75.45
2018-09-08T01:32:21.427Z,76.26
2018-09-08T01:33:21.414Z,75.14
2018-09-08T01:34:21.402Z,75.75
2018-09-08T01:35:21.412Z,75.85
2018-09-08T01:36:21.403Z,75.85
2018-09-08T01:37:21.378Z,75.65
2018-09-08T01:38:21.383Z,75.96
2018-09-08T01:39:21.348Z,76.06
2018-09-08T01:40:21.339Z,77.08
2018-09-08T01:41:21.329Z,76.37
2018-09-08T01:42:21.317Z,75.85
2018-09-08T01:43:21.329Z,75.14
2018-09-08T01:44:21.299Z,76.37
2018-09-08T01:45:21.289Z,76.16
2018-09-08T01:46:21.280Z,76.47
2018-09-08T01:47:21.263Z,75.21
2018-09-08T01:48:21.280Z,74.80
2018-09-08T01:49:21.244Z,75.71
2018-09-08T01:50:21.230Z,75.75
2018-09-08T01:51:21.226Z,75.45
2018-09-08T01:52:21.213Z,75.55
2018-09-08T01:53:21.199Z,76.06
2018-09-08T01:54:21.209Z,76.26
2018-09-08T01:55:21.184Z,75.14
2018-09-08T01:56:21.170Z,76.26
2018-09-08T01:57:21.159Z,76.12
2018-09-08T01:58:21.153Z,75.96
2018-09-08T01:59:21.157Z,75.85
2018-09-08T02:00:21.129Z,75.85
2018-09-08T02:01:21.114Z,76.50
2018-09-08T02:02:21.101Z,76.26
2018-09-08T02:03:21.097Z,77.94
2018-09-08T02:04:21.085Z,77.01
2018-09-08T02:05:21.092Z,77.53
2018-09-08T02:06:21.065Z,78.34
2018-09-08T02:07:21.048Z,78.24
2018-09-08T02:08:21.038Z,78.34
2018-09-08T02:09:21.032Z,79.20
2018-09-08T02:10:21.040Z,79.71
2018-09-08T02:11:21.005Z,78.59
2018-09-08T02:12:20.995Z,79.64
2018-09-08T02:13:20.998Z,80.26
2018-09-08T02:14:20.974Z,79.82
2018-09-08T02:15:20.986Z,80.02
2018-09-08T02:16:20.955Z,80.22
2018-09-08T02:17:20.946Z,79.91
2018-09-08T02:18:20.936Z,79.10
2018-09-08T02:19:20.920Z,79.10
2018-09-08T02:20:20.931Z,79.30
2018-09-08T02:21:20.901Z,79.61
2018-09-08T02:22:20.891Z,78.69
2018-09-08T02:23:20.881Z,78.79
2018-09-08T02:24:20.869Z,79.82
2018-09-08T02:25:20.931Z,79.20
2018-09-08T02:26:20.847Z,79.30
2018-09-08T02:27:20.839Z,79.06
2018-09-08T02:28:20.835Z,78.34
2018-09-08T02:29:20.815Z,78.65
2018-09-08T02:30:20.830Z,78.75
2018-09-08T02:31:20.789Z,78.86
2018-09-08T02:32:20.779Z,78.24
2018-09-08T02:33:20.770Z,78.34
2018-09-08T02:34:20.758Z,79.82
2018-09-08T02:35:20.754Z,78.75
2018-09-08T02:36:20.756Z,80.29
2018-09-08T02:37:20.732Z,80.12
2018-09-08T02:38:20.722Z,79.27
2018-09-08T02:39:20.710Z,78.86
2018-09-08T02:40:20.694Z,79.16
2018-09-08T02:41:20.702Z,79.47
2018-09-08T02:42:20.703Z,78.45
2018-09-08T02:43:20.660Z,79.98
2018-09-08T02:44:20.654Z,78.75
2018-09-08T02:45:20.641Z,79.27
2018-09-08T02:46:20.648Z,79.27
2018-09-08T02:47:20.624Z,79.78
2018-09-08T02:48:20.611Z,79.68
2018-09-08T02:49:20.600Z,80.19
2018-09-08T02:50:20.593Z,80.08
2018-09-08T02:51:20.599Z,80.49
2018-09-08T02:52:20.565Z,79.88
2018-09-08T02:53:20.556Z,80.08
2018-09-08T02:54:20.543Z,80.80
2018-09-08T02:55:20.537Z,79.78
2018-09-08T02:56:20.524Z,79.78
2018-09-08T02:57:20.531Z,79.23
2018-09-08T02:58:20.499Z,78.92
2018-09-08T02:59:20.497Z,79.02
2018-09-08T03:00:20.485Z,78.92
2018-09-08T03:01:20.470Z,79.16
2018-09-08T03:02:20.488Z,79.33
2018-09-08T03:03:20.444Z,80.19
2018-09-08T03:04:20.439Z,80.08
2018-09-08T03:05:20.428Z,80.19
2018-09-08T03:06:20.412Z,80.39
2018-09-08T03:07:20.409Z,80.19
2018-09-08T03:08:20.413Z,80.19
2018-09-08T03:09:20.386Z,80.29
2018-09-08T03:10:20.374Z,81.31
2018-09-08T03:11:20.357Z,80.60
2018-09-08T03:12:20.351Z,80.90
2018-09-08T03:13:20.360Z,81.10
2018-09-08T03:14:20.332Z,80.90
2018-09-08T03:15:20.314Z,81.10
2018-09-08T03:16:20.307Z,81.86
2018-09-08T03:17:20.296Z,81.56
2018-09-08T03:18:20.305Z,81.01
2018-09-08T03:19:20.279Z,80.69
2018-09-08T03:20:20.267Z,81.62
2018-09-08T03:21:20.253Z,81.41
2018-09-08T03:22:20.245Z,82.54
2018-09-08T03:23:20.227Z,83.29
2018-09-08T03:24:20.236Z,83.19
2018-09-08T03:25:20.208Z,82.98
2018-09-08T03:26:20.195Z,82.57
2018-09-08T03:27:20.191Z,83.19
2018-09-08T03:28:20.180Z,83.19
2018-09-08T03:29:20.197Z,83.36
2018-09-08T03:30:20.155Z,82.54
2018-09-08T03:31:20.148Z,82.75
2018-09-08T03:32:20.135Z,82.43
2018-09-08T03:33:20.134Z,82.43
2018-09-08T03:34:20.120Z,82.64
2018-09-08T03:35:20.114Z,82.34
2018-09-08T03:36:20.090Z,82.34
2018-09-08T03:37:20.078Z,82.75
2018-09-08T03:38:20.066Z,82.64
2018-09-08T03:39:20.061Z,82.54
2018-09-08T03:40:20.066Z,82.95
2018-09-08T03:41:20.041Z,82.54
2018-09-08T03:42:20.028Z,82.54
2018-09-08T03:43:20.011Z,82.64
2018-09-08T03:44:20.002Z,82.64
2018-09-08T03:45:20.018Z,82.84
2018-09-08T03:46:19.986Z,83.56
2018-09-08T03:47:19.968Z,82.78
2018-09-08T03:48:19.959Z,83.46
2018-09-08T03:49:19.948Z,84.31
2018-09-08T03:50:19.960Z,83.70
2018-09-08T03:51:19.932Z,84.11
2018-09-08T03:52:19.918Z,83.91
2018-09-08T03:53:19.911Z,84.63
2018-09-08T03:54:19.899Z,85.24
2018-09-08T03:55:19.881Z,84.52
2018-09-08T03:56:19.891Z,85.07
2018-09-08T03:57:19.860Z,84.97
2018-09-08T03:58:19.849Z,84.97
2018-09-08T03:59:19.845Z,85.28
2018-09-08T04:00:19.832Z,84.56
2018-09-08T04:01:19.821Z,85.96
2018-09-08T04:02:19.824Z,85.69
2018-09-08T04:03:19.802Z,85.79
2018-09-08T04:04:19.791Z,85.07
2018-09-08T04:05:19.778Z,84.63
2018-09-08T04:06:19.794Z,84.93
2018-09-08T04:07:19.756Z,84.93
2018-09-08T04:08:19.744Z,84.66
2018-09-08T04:09:19.735Z,84.42
2018-09-08T04:10:19.729Z,84.42
2018-09-08T04:11:19.790Z,84.83
2018-09-08T04:12:19.717Z,84.31
2018-09-08T04:13:19.689Z,84.93
2018-09-08T04:14:19.676Z,85.96
2018-09-08T04:15:19.683Z,85.69
2018-09-08T04:16:19.660Z,84.97
2018-09-08T04:17:19.663Z,84.87
2018-09-08T04:18:19.634Z,85.79
2018-09-08T04:19:19.629Z,85.69
2018-09-08T04:20:19.616Z,85.38
2018-09-08T04:21:19.606Z,85.58
2018-09-08T04:22:19.621Z,86.71
2018-09-08T04:23:19.580Z,85.52
2018-09-08T04:24:19.568Z,86.14
2018-09-08T04:25:19.560Z,86.61
2018-09-08T04:26:19.547Z,86.44
2018-09-08T04:27:19.543Z,85.52
2018-09-08T04:28:19.549Z,85.99
2018-09-08T04:29:19.539Z,86.34
2018-09-08T04:30:19.511Z,86.10
2018-09-08T04:31:19.497Z,86.10
2018-09-08T04:32:19.485Z,85.89
2018-09-08T04:33:19.503Z,86.71
2018-09-08T04:34:19.467Z,86.40
2018-09-08T04:35:19.451Z,86.85
2018-09-08T04:36:19.443Z,86.24
2018-09-08T04:37:19.433Z,85.93
2018-09-08T04:38:19.417Z,85.58
2018-09-08T04:39:19.432Z,85.58
2018-09-08T04:40:19.401Z,85.48
2018-09-08T04:41:19.391Z,86.10
2018-09-08T04:42:19.381Z,85.89
2018-09-08T04:43:19.365Z,85.48
2018-09-08T04:44:19.375Z,85.48
2018-09-08T04:45:19.344Z,86.10
2018-09-08T04:46:19.334Z,85.38
2018-09-08T04:47:19.329Z,86.61
2018-09-08T04:48:19.314Z,86.51
2018-09-08T04:49:19.371Z,86.61
2018-09-08T04:50:19.289Z,86.10
2018-09-08T04:51:19.293Z,85.58
2018-09-08T04:52:19.293Z,86.10
2018-09-08T04:53:19.260Z,85.79
2018-09-08T04:54:19.853Z,85.14
2018-09-08T04:55:19.252Z,86.10
2018-09-08T04:56:19.225Z,86.10
2018-09-08T04:57:19.217Z,85.58
2018-09-08T04:58:19.201Z,85.99
2018-09-08T04:59:19.197Z,86.71
2018-09-08T05:00:19.213Z,86.91
2018-09-08T05:01:19.174Z,86.71
2018-09-08T05:02:19.200Z,86.71
2018-09-08T05:03:19.148Z,87.47
2018-09-08T05:04:19.140Z,87.88
2018-09-08T05:05:19.134Z,87.77
2018-09-08T05:06:19.141Z,87.37
2018-09-08T05:07:19.114Z,87.26
2018-09-08T05:08:19.100Z,86.81
2018-09-08T05:09:19.087Z,87.47
2018-09-08T05:10:19.100Z,86.71
2018-09-08T05:11:19.102Z,87.88
2018-09-08T05:12:19.055Z,87.16
2018-09-08T05:13:19.049Z,86.96
2018-09-08T05:14:19.115Z,87.06
2018-09-08T05:15:19.024Z,87.26
2018-09-08T05:16:19.037Z,86.55
2018-09-08T05:17:19.069Z,86.96
2018-09-08T05:18:18.985Z,86.40
2018-09-08T05:19:18.982Z,87.16
2018-09-08T05:20:18.969Z,87.37
2018-09-08T05:21:18.956Z,87.16
2018-09-08T05:22:18.991Z,87.67
2018-09-08T05:23:18.963Z,87.88
2018-09-08T05:24:18.938Z,87.02
2018-09-08T05:25:18.921Z,87.77
2018-09-08T05:26:18.906Z,87.88
2018-09-08T05:27:18.914Z,87.88
2018-09-08T05:28:18.883Z,88.39
2018-09-08T05:29:18.871Z,88.29
2018-09-08T05:30:18.858Z,88.39
2018-09-08T05:31:18.857Z,88.18
2018-09-08T05:32:18.864Z,87.84
2018-09-08T05:33:18.832Z,87.73
2018-09-08T05:34:18.824Z,87.53
2018-09-08T05:35:18.835Z,87.94
2018-09-08T05:36:18.799Z,87.84
2018-09-08T05:37:18.814Z,87.73
2018-09-08T05:38:18.778Z,87.32
2018-09-08T05:39:18.763Z,87.63
2018-09-08T05:40:18.752Z,87.49
2018-09-08T05:41:18.740Z,86.88
2018-09-08T05:42:18.728Z,86.88
2018-09-08T05:43:18.742Z,86.88
2018-09-08T05:44:18.715Z,86.46
2018-09-08T05:45:18.700Z,86.88
2018-09-08T05:46:18.691Z,85.96
2018-09-08T05:47:18.700Z,85.81
2018-09-08T05:48:18.668Z,85.91
2018-09-08T05:49:18.655Z,85.40
2018-09-08T05:50:18.647Z,85.20
2018-09-08T05:51:18.638Z,85.50
2018-09-08T05:52:18.626Z,85.50
2018-09-08T05:53:18.656Z,85.61
2018-09-08T05:54:18.599Z,85.47
2018-09-08T05:55:18.621Z,85.81
2018-09-08T05:56:18.631Z,85.47
2018-09-08T05:57:18.571Z,84.58
2018-09-08T05:58:18.594Z,84.85
2018-09-08T05:59:18.547Z,84.65
2018-09-08T06:00:18.536Z,85.16
2018-09-08T06:01:18.525Z,84.41
2018-09-08T06:02:18.525Z,84.61
2018-09-08T06:03:18.512Z,85.02
2018-09-08T06:04:18.514Z,85.83
2018-09-08T06:05:18.484Z,84.71
2018-09-08T06:06:18.476Z,85.42
2018-09-08T06:07:18.461Z,84.91
2018-09-08T06:08:18.452Z,85.53
2018-09-08T06:09:18.487Z,85.83
2018-09-08T06:10:18.526Z,85.42
2018-09-08T06:11:18.416Z,85.63
2018-09-08T06:12:18.405Z,85.22
2018-09-08T06:13:18.394Z,85.83
2018-09-08T06:14:18.398Z,85.59
2018-09-08T06:15:18.377Z,85.59
2018-09-08T06:16:18.381Z,84.36
2018-09-08T06:17:18.383Z,83.85
2018-09-08T06:18:18.486Z,84.36
2018-09-08T06:19:18.344Z,84.26
2018-09-08T06:20:18.318Z,83.92
2018-09-08T06:21:18.312Z,84.12
2018-09-08T06:22:18.298Z,83.85
2018-09-08T06:23:18.290Z,84.33
2018-09-08T06:24:18.321Z,84.01
2018-09-08T06:25:18.264Z,84.22
2018-09-08T06:26:18.252Z,83.00
2018-09-08T06:27:18.247Z,83.16
2018-09-08T06:28:18.238Z,83.26
2018-09-08T06:29:18.226Z,83.26
2018-09-08T06:30:18.238Z,83.06
2018-09-08T06:31:18.201Z,82.65
2018-09-08T06:32:18.189Z,82.61
2018-09-08T06:33:18.196Z,82.75
2018-09-08T06:34:18.165Z,82.51
2018-09-08T06:35:18.228Z,82.71
2018-09-08T06:36:18.177Z,82.21
2018-09-08T06:37:18.148Z,81.80
2018-09-08T06:38:18.186Z,81.39
2018-09-08T06:39:18.111Z,81.90
2018-09-08T06:40:18.101Z,82.41
2018-09-08T06:41:18.117Z,82.92
2018-09-08T06:42:18.084Z,82.31
2018-09-08T06:43:18.069Z,81.39
2018-09-08T06:44:18.080Z,81.45
2018-09-08T06:45:18.064Z,81.04
2018-09-08T06:46:18.054Z,81.45
2018-09-08T06:47:18.033Z,81.25
2018-09-08T06:48:18.020Z,81.45
2018-09-08T06:49:18.009Z,81.56
2018-09-08T06:50:18.008Z,81.56
2018-09-08T06:51:18.011Z,83.59
2018-09-08T06:52:18.013Z,81.25
2018-09-08T06:53:17.962Z,81.45
2018-09-08T06:54:17.949Z,81.04
2018-09-08T06:55:17.949Z,81.86
2018-09-08T06:56:17.935Z,80.40
2018-09-08T06:57:17.943Z,81.25
2018-09-08T06:58:17.916Z,82.23
2018-09-08T06:59:17.907Z,80.80
2018-09-08T07:00:17.890Z,80.70
2018-09-08T07:01:17.877Z,81.41
2018-09-08T07:02:17.887Z,80.70
2018-09-08T07:03:17.859Z,81.38
2018-09-08T07:04:17.847Z,80.77
2018-09-08T07:05:17.832Z,80.16
2018-09-08T07:06:17.820Z,79.44
2018-09-08T07:07:17.833Z,79.54
2018-09-08T07:08:17.805Z,80.26
2018-09-08T07:09:17.795Z,80.16
2018-09-08T07:10:17.783Z,80.16
2018-09-08T07:11:17.765Z,81.48
2018-09-08T07:12:17.781Z,80.22
2018-09-08T07:13:17.750Z,80.11
2018-09-08T07:14:17.740Z,80.93
2018-09-08T07:15:17.821Z,79.98
2018-09-08T07:16:17.712Z,79.47
2018-09-08T07:17:17.702Z,79.57
2018-09-08T07:18:17.709Z,79.57
2018-09-08T07:19:17.693Z,79.47
2018-09-08T07:20:17.674Z,79.68
2018-09-08T07:21:17.661Z,79.98
2018-09-08T07:22:17.655Z,78.11
2018-09-08T07:23:17.660Z,79.02
2018-09-08T07:24:17.629Z,79.63
2018-09-08T07:25:17.618Z,80.45
2018-09-08T07:26:17.606Z,78.72
2018-09-08T07:27:17.748Z,77.91
2018-09-08T07:28:18.055Z,78.21
2018-09-08T07:29:17.735Z,77.81
2018-09-08T07:30:17.567Z,77.20
2018-09-08T07:31:17.591Z,77.77
2018-09-08T07:32:17.541Z,77.77
2018-09-08T07:33:17.530Z,77.67
2018-09-08T07:34:17.547Z,78.08
2018-09-08T07:35:17.506Z,77.16
2018-09-08T07:36:17.505Z,79.90
2018-09-08T07:37:17.486Z,77.97
2018-09-08T07:38:17.471Z,77.36
2018-09-08T07:39:17.513Z,77.33
2018-09-08T07:40:17.467Z,77.63
2018-09-08T07:41:17.443Z,77.63
2018-09-08T07:42:17.441Z,77.53
2018-09-08T07:43:17.417Z,76.72
2018-09-08T07:44:17.412Z,75.80
2018-09-08T07:45:17.416Z,77.53
2018-09-08T07:46:17.395Z,77.09
2018-09-08T07:47:17.375Z,77.80
2018-09-08T07:48:17.365Z,74.75
2018-09-08T07:49:17.354Z,75.83
2018-09-08T07:50:17.368Z,77.70
2018-09-08T07:51:17.336Z,75.83
2018-09-08T07:52:17.323Z,77.15
2018-09-08T07:53:17.325Z,75.83
2018-09-08T07:54:17.307Z,74.82
2018-09-08T07:55:17.296Z,76.10
2018-09-08T07:56:17.295Z,74.38
2018-09-08T07:57:17.267Z,74.58
2018-09-08T07:58:17.255Z,74.17
2018-09-08T07:59:17.293Z,74.24
2018-09-08T08:00:17.236Z,76.51
2018-09-08T08:01:17.264Z,72.85
2018-09-08T08:02:17.211Z,74.17
2018-09-08T08:03:17.213Z,75.56
2018-09-08T08:04:17.201Z,73.93
2018-09-08T08:05:17.189Z,73.43
2018-09-08T08:06:17.175Z,73.36
2018-09-08T08:07:17.182Z,74.58
2018-09-08T08:08:17.148Z,73.87
2018-09-08T08:09:17.144Z,73.26
2018-09-08T08:10:17.126Z,73.57
2018-09-08T08:11:17.121Z,73.02
2018-09-08T08:12:17.108Z,73.12
2018-09-08T08:13:17.114Z,75.46
2018-09-08T08:14:17.090Z,74.61
2018-09-08T08:15:17.079Z,73.80
2018-09-08T08:16:17.062Z,74.04
2018-09-08T08:17:17.068Z,72.99
2018-09-08T08:18:17.069Z,73.39
2018-09-08T08:19:17.032Z,73.09
2018-09-08T08:20:17.018Z,73.09
2018-09-08T08:21:17.015Z,72.89
2018-09-08T08:22:17.024Z,73.90
2018-09-08T08:23:17.125Z,73.97
2018-09-08T08:24:16.977Z,72.96
2018-09-08T08:25:16.969Z,72.99
2018-09-08T08:26:16.958Z,74.21
2018-09-08T08:27:16.944Z,73.19
2018-09-08T08:28:16.956Z,73.97
2018-09-08T08:29:16.919Z,74.27
2018-09-08T08:30:16.911Z,73.19
2018-09-08T08:31:16.933Z,72.75
2018-09-08T08:32:16.896Z,73.36
2018-09-08T08:33:16.875Z,72.01
2018-09-08T08:34:16.884Z,72.72
2018-09-08T08:35:16.860Z,72.81
2018-09-08T08:36:16.850Z,71.77
2018-09-08T08:37:16.922Z,71.16
2018-09-08T08:38:16.840Z,72.04
2018-09-08T08:39:16.841Z,72.65
2018-09-08T08:40:16.800Z,70.83
2018-09-08T08:41:16.789Z,70.65
2018-09-08T08:42:16.783Z,72.58
2018-09-08T08:43:16.879Z,72.14
2018-09-08T08:44:16.762Z,71.67
2018-09-08T08:45:16.770Z,71.64
2018-09-08T08:46:16.739Z,71.94
2018-09-08T08:47:16.726Z,72.08
2018-09-08T08:48:16.712Z,72.14
2018-09-08T08:49:16.710Z,70.18
2018-09-08T08:50:16.715Z,69.45
2018-09-08T08:51:16.693Z,71.67
2018-09-08T08:52:16.714Z,72.17
2018-09-08T08:53:16.658Z,69.04
2018-09-08T08:54:16.651Z,70.25
2018-09-08T08:55:16.666Z,68.63
2018-09-08T08:56:16.634Z,68.91
2018-09-08T08:57:16.621Z,69.42
2018-09-08T08:58:16.608Z,70.02
2018-09-08T08:59:16.600Z,69.27
2018-09-08T09:00:16.584Z,72.11
2018-09-08T09:01:16.609Z,70.56
2018-09-08T09:02:16.569Z,71.67
2018-09-08T09:03:16.591Z,70.56
2018-09-08T09:04:16.583Z,68.94
2018-09-08T09:05:16.531Z,68.54
2018-09-08T09:06:16.538Z,70.25
2018-09-08T09:07:16.959Z,68.84
2018-09-08T09:08:16.836Z,70.76
2018-09-08T09:09:16.507Z,69.55
2018-09-08T09:10:16.480Z,68.23
2018-09-08T09:11:16.520Z,70.76
2018-09-08T09:12:16.452Z,71.06
2018-09-08T09:13:16.503Z,68.94
2018-09-08T09:14:16.434Z,69.21
2018-09-08T09:15:16.703Z,68.71
2018-09-08T09:16:16.415Z,69.14
2018-09-08T09:17:16.422Z,68.91
2018-09-08T09:18:16.392Z,68.98
2018-09-08T09:19:16.379Z,68.57
2018-09-08T09:20:16.368Z,68.44
2018-09-08T09:21:16.361Z,70.79
2018-09-08T09:22:16.374Z,70.02
2018-09-08T09:23:16.403Z,68.21
2018-09-08T09:24:16.993Z,67.47
2018-09-08T09:25:16.343Z,68.30
2018-09-08T09:26:16.304Z,68.01
2018-09-08T09:27:16.296Z,69.08
2018-09-08T09:28:16.304Z,65.62
2018-09-08T09:29:16.280Z,68.74
2018-09-08T09:30:16.264Z,64.28
2018-09-08T09:31:16.249Z,63.85
2018-09-08T09:32:16.237Z,64.55
2018-09-08T09:33:16.242Z,64.18
2018-09-08T09:34:16.222Z,66.50
2018-09-08T09:35:16.213Z,63.70
2018-09-08T09:36:16.201Z,64.98
2018-09-08T09:37:16.205Z,65.88
2018-09-08T09:38:16.189Z,67.10
2018-09-08T09:39:16.165Z,67.80
2018-09-08T09:40:16.159Z,67.30
2018-09-08T09:41:16.145Z,67.27
2018-09-08T09:42:16.136Z,62.93
2018-09-08T09:43:16.144Z,64.21
2018-09-08T09:44:16.126Z,64.18
2018-09-08T09:45:16.139Z,64.25
2018-09-08T09:46:16.116Z,66.56
2018-09-08T09:47:16.084Z,64.35
2018-09-08T09:48:16.068Z,64.92
2018-09-08T09:49:16.075Z,61.10
2018-09-08T09:50:16.065Z,65.93
2018-09-08T09:51:16.053Z,64.62
2018-09-08T09:52:16.026Z,62.18
2018-09-08T09:53:16.175Z,61.94
2018-09-08T09:54:16.036Z,61.34
2018-09-08T09:55:15.989Z,61.47
2018-09-08T09:56:15.981Z,61.94
2018-09-08T09:57:15.991Z,63.39
2018-09-08T09:58:15.956Z,59.66
2018-09-08T09:59:15.948Z,58.88
2018-09-08T10:00:15.986Z,60.63
2018-09-08T10:01:15.932Z,64.18
2018-09-08T10:02:15.916Z,63.75
2018-09-08T10:03:15.904Z,61.76
2018-09-08T10:04:15.889Z,62.87
2018-09-08T10:05:15.897Z,62.44
2018-09-08T10:06:15.891Z,62.34
2018-09-08T10:07:15.894Z,64.45
2018-09-08T10:08:15.855Z,62.58
2018-09-08T10:09:15.836Z,59.16
2018-09-08T10:10:15.845Z,58.55
2018-09-08T10:11:15.819Z,59.13
2018-09-08T10:12:15.811Z,61.37
2018-09-08T10:13:15.802Z,62.58
2018-09-08T10:14:15.787Z,59.96
2018-09-08T10:15:15.791Z,62.85
2018-09-08T10:16:15.761Z,59.23
2018-09-08T10:17:15.751Z,59.41
2018-09-08T10:18:15.741Z,59.08
2018-09-08T10:19:15.733Z,58.54
2018-09-08T10:20:15.742Z,61.76
2018-09-08T10:21:15.729Z,58.72
2018-09-08T10:22:15.706Z,58.22
2018-09-08T10:23:15.767Z,58.36
2018-09-08T10:24:15.677Z,55.38
2018-09-08T10:25:15.689Z,56.68
2018-09-08T10:26:15.661Z,59.45
2018-09-08T10:27:15.651Z,57.94
2018-09-08T10:28:15.661Z,56.86
2018-09-08T10:29:15.623Z,56.96
2018-09-08T10:30:15.631Z,57.59
2018-09-08T10:31:15.604Z,58.83
2018-09-08T10:32:16.151Z,58.53
2018-09-08T10:33:15.584Z,58.55
2018-09-08T10:34:15.575Z,60.77
2018-09-08T10:35:15.584Z,59.46
2018-09-08T10:36:15.550Z,58.55
2018-09-08T10:37:15.588Z,57.92
2018-09-08T10:38:15.600Z,57.72
2018-09-08T10:39:15.519Z,58.02
2018-09-08T10:40:15.636Z,58.20
2018-09-08T10:41:15.525Z,62.42
2018-09-08T10:42:15.484Z,57.57
2018-09-08T10:43:15.504Z,56.29
2018-09-08T10:44:15.482Z,55.55
2018-09-08T10:45:15.459Z,55.79
2018-09-08T10:46:15.466Z,55.31
2018-09-08T10:47:15.431Z,58.12
2018-09-08T10:48:15.440Z,57.42
2018-09-08T10:49:15.440Z,58.22
2018-09-08T10:50:15.397Z,55.18
2018-09-08T10:51:15.389Z,59.27
2018-09-08T10:52:15.397Z,55.76
2018-09-08T10:53:15.372Z,53.85
2018-09-08T10:54:15.359Z,58.47
2018-09-08T10:55:15.350Z,56.06
2018-09-08T10:56:15.330Z,55.93
2018-09-08T10:57:15.355Z,53.82
2018-09-08T10:58:15.315Z,53.52
2018-09-08T10:59:15.300Z,57.44
2018-09-08T11:00:15.287Z,55.58
2018-09-08T11:01:15.277Z,54.78
2018-09-08T11:02:15.596Z,57.57
2018-09-08T11:03:15.279Z,54.05
2018-09-08T11:04:15.251Z,53.52
2018-09-08T11:05:15.240Z,55.43
2018-09-08T11:06:15.227Z,52.69
2018-09-08T11:07:15.216Z,51.92
2018-09-08T11:08:15.218Z,53.92
2018-09-08T11:09:15.194Z,52.72
2018-09-08T11:10:15.181Z,51.81
2018-09-08T11:11:15.173Z,53.42
2018-09-08T11:12:15.168Z,52.01
2018-09-08T11:13:15.164Z,53.62
2018-09-08T11:14:15.139Z,51.21
2018-09-08T11:15:15.130Z,55.30
2018-09-08T11:16:15.125Z,51.09
2018-09-08T11:17:15.112Z,51.49
2018-09-08T11:18:15.119Z,50.16
2018-09-08T11:19:15.085Z,49.04
2018-09-08T11:20:15.088Z,50.94
2018-09-08T11:21:15.062Z,50.84
2018-09-08T11:22:15.054Z,48.46
2018-09-08T11:23:15.075Z,50.89
2018-09-08T11:24:15.046Z,52.92
2018-09-08T11:25:15.035Z,52.04
2018-09-08T11:26:15.021Z,53.22
2018-09-08T11:27:15.003Z,54.55
2018-09-08T11:28:14.991Z,53.97
2018-09-08T11:29:15.021Z,53.88
2018-09-08T11:30:15.018Z,53.37
2018-09-08T11:31:14.964Z,52.06
2018-09-08T11:32:14.965Z,56.01
2018-09-08T11:33:14.938Z,56.04
2018-09-08T11:34:14.946Z,57.85
2018-09-08T11:35:14.922Z,56.11
2018-09-08T11:36:14.912Z,54.83
2018-09-08T11:37:14.902Z,54.60
2018-09-08T11:38:14.983Z,54.55
2018-09-08T11:39:14.899Z,52.87
2018-09-08T11:40:14.865Z,53.14
2018-09-08T11:41:14.852Z,53.82
2018-09-08T11:42:14.843Z,54.10
2018-09-08T11:43:14.839Z,53.07
2018-09-08T11:44:14.826Z,51.34
2018-09-08T11:45:14.827Z,52.42
2018-09-08T11:46:14.799Z,50.79
2018-09-08T11:47:14.791Z,49.19
2018-09-08T11:48:14.783Z,50.87
2018-09-08T11:49:14.772Z,49.13
2018-09-08T11:50:14.776Z,56.73
2018-09-08T11:51:14.752Z,54.00
2018-09-08T11:52:14.733Z,50.14
2018-09-08T11:53:14.723Z,47.22
2018-09-08T11:54:14.716Z,49.77
2018-09-08T11:55:14.727Z,49.87
2018-09-08T11:56:14.697Z,48.65
2018-09-08T11:57:14.686Z,46.55
2018-09-08T11:58:14.675Z,46.25
2018-09-08T11:59:14.684Z,47.35
2018-09-08T12:00:14.648Z,45.87
2018-09-08T12:01:14.659Z,47.87
2018-09-08T12:02:14.691Z,46.59
2018-09-08T12:03:14.618Z,48.19
2018-09-08T12:04:14.606Z,49.32
2018-09-08T12:05:14.599Z,46.50
2018-09-08T12:06:14.590Z,46.51
2018-09-08T12:07:14.580Z,47.66
2018-09-08T12:08:14.572Z,47.50
2018-09-08T12:09:14.563Z,49.04
2018-09-08T12:10:14.547Z,49.36
2018-09-08T12:11:14.542Z,51.12
2018-09-08T12:12:14.549Z,50.87
2018-09-08T12:13:14.557Z,49.91
2018-09-08T12:14:14.506Z,45.27
2018-09-08T12:15:14.493Z,44.45
2018-09-08T12:16:14.489Z,42.68
2018-09-08T12:17:14.467Z,43.65
2018-09-08T12:18:14.467Z,44.03
2018-09-08T12:19:14.472Z,44.65
2018-09-08T12:20:14.442Z,43.43
2018-09-08T12:21:14.457Z,45.15
2018-09-08T12:22:14.476Z,47.95
2018-09-08T12:23:14.405Z,43.11
2018-09-08T12:24:14.393Z,42.59
2018-09-08T12:25:14.383Z,42.65
2018-09-08T12:26:14.373Z,43.89
2018-09-08T12:27:14.372Z,44.01
2018-09-08T12:28:14.357Z,45.68
2018-09-08T12:29:14.347Z,44.69
2018-09-08T12:30:14.335Z,42.49
2018-09-08T12:31:14.325Z,46.58
2018-09-08T12:32:14.311Z,43.29
2018-09-08T12:33:14.325Z,44.76
2018-09-08T12:34:14.291Z,43.03
2018-09-08T12:35:14.279Z,42.68
2018-09-08T12:36:14.268Z,43.67
2018-09-08T12:37:14.319Z,45.33
2018-09-08T12:38:14.247Z,41.31
2018-09-08T12:39:14.236Z,46.01
2018-09-08T12:40:14.232Z,43.67
2018-09-08T12:41:14.215Z,45.18
2018-09-08T12:42:14.229Z,46.11
2018-09-08T12:43:14.191Z,49.44
2018-09-08T12:44:14.179Z,43.79
2018-09-08T12:45:14.168Z,45.20
2018-09-08T12:46:14.165Z,43.95
2018-09-08T12:47:14.152Z,45.62
2018-09-08T12:48:14.147Z,47.76
2018-09-08T12:49:14.126Z,46.91
2018-09-08T12:50:14.115Z,48.18
2018-09-08T12:51:14.111Z,47.09
2018-09-08T12:52:14.097Z,48.50